createdAt,value
2022-08-22T00:01:07.605Z,74.21
2022-08-22T00:02:46.390Z,66.48
2022-08-22T00:03:04.820Z,64.31
2022-08-22T00:03:58.591Z,74.32
2022-08-22T00:06:41.532Z,74.42
2022-08-22T00:09:24.564Z,74.45
2022-08-22T00:12:03.726Z,75.28
2022-08-22T00:14:35.888Z,75.05
2022-08-22T00:17:22.262Z,75.00
2022-08-22T00:20:08.904Z,75.44
2022-08-22T00:22:51.146Z,75.45
2022-08-22T00:25:40.163Z,75.23
2022-08-22T00:28:21.848Z,75.22
2022-08-22T00:31:01.156Z,75.68
2022-08-22T00:33:47.870Z,75.61
2022-08-22T00:36:17.173Z,75.53
2022-08-22T00:38:54.611Z,75.74
2022-08-22T00:41:50.624Z,76.04
2022-08-22T00:44:37.560Z,76.36
2022-08-22T00:47:42.456Z,76.50
2022-08-22T00:50:46.446Z,76.18
2022-08-22T00:53:25.708Z,75.85
2022-08-22T00:56:27.606Z,75.37
2022-08-22T00:59:33.168Z,75.74
2022-08-22T01:02:31.813Z,76.53
2022-08-22T01:05:19.416Z,76.70
2022-08-22T01:08:03.773Z,77.08
2022-08-22T01:11:05.123Z,77.30
2022-08-22T01:13:53.500Z,77.45
2022-08-22T01:16:58.396Z,77.62
2022-08-22T01:19:49.752Z,77.72
2022-08-22T01:22:19.032Z,78.08
2022-08-22T01:25:22.626Z,78.24
2022-08-22T01:28:30.362Z,78.41
2022-08-22T01:31:22.810Z,78.24
2022-08-22T01:34:17.060Z,78.23
2022-08-22T01:37:13.850Z,78.55
2022-08-22T01:40:17.645Z,78.82
2022-08-22T01:43:10.659Z,78.99
2022-08-22T01:45:52.488Z,78.99
2022-08-22T01:49:00.645Z,78.72
2022-08-22T01:51:29.645Z,79.06
2022-08-22T01:54:11.233Z,79.70
2022-08-22T01:56:45.779Z,79.12
2022-08-22T01:59:20.641Z,79.15
2022-08-22T02:02:28.001Z,79.23
2022-08-22T02:05:46.466Z,79.50
2022-08-22T02:08:21.829Z,79.68
2022-08-22T02:11:02.885Z,79.50
2022-08-22T02:13:46.320Z,79.60
2022-08-22T02:16:23.589Z,80.41
2022-08-22T02:19:04.578Z,80.06
2022-08-22T02:21:53.860Z,79.72
2022-08-22T02:24:32.695Z,80.01
2022-08-22T02:27:31.509Z,80.81
2022-08-22T02:30:04.303Z,80.51
2022-08-22T02:32:40.046Z,80.16
2022-08-22T02:35:06.642Z,80.22
2022-08-22T02:38:18.085Z,79.94
2022-08-22T02:40:48.267Z,79.80
2022-08-22T02:43:39.489Z,80.27
2022-08-22T02:46:43.478Z,80.67
2022-08-22T02:49:17.979Z,80.65
2022-08-22T02:52:14.541Z,80.26
2022-08-22T02:55:00.983Z,81.04
2022-08-22T02:57:40.280Z,80.95
2022-08-22T03:00:31.334Z,80.60
2022-08-22T03:03:05.664Z,80.42
2022-08-22T03:05:38.248Z,80.22
2022-08-22T03:08:17.091Z,80.80
2022-08-22T03:11:06.129Z,81.35
2022-08-22T03:13:58.878Z,81.25
2022-08-22T03:16:35.978Z,80.98
2022-08-22T03:19:18.323Z,80.83
2022-08-22T03:21:58.025Z,80.98
2022-08-22T03:24:31.767Z,81.44
2022-08-22T03:27:08.957Z,81.18
2022-08-22T03:29:47.921Z,81.24
2022-08-22T03:32:19.087Z,81.64
2022-08-22T03:35:03.077Z,81.56
2022-08-22T03:37:35.599Z,81.89
2022-08-22T03:40:22.937Z,81.49
2022-08-22T03:43:12.542Z,81.56
2022-08-22T03:45:54.661Z,81.26
2022-08-22T03:48:56.923Z,82.34
2022-08-22T03:51:41.068Z,82.59
2022-08-22T03:54:22.648Z,82.37
2022-08-22T03:57:10.311Z,81.98
2022-08-22T04:00:19.101Z,81.95
2022-08-22T04:03:21.898Z,81.97
2022-08-22T04:06:17.721Z,81.65
2022-08-22T04:09:04.772Z,81.35
2022-08-22T04:12:08.948Z,81.30
2022-08-22T04:15:24.400Z,81.83
2022-08-22T04:17:58.844Z,82.18
2022-08-22T04:20:52.889Z,82.80
2022-08-22T04:23:44.587Z,82.29
2022-08-22T04:26:21.178Z,82.15
2022-08-22T04:29:06.406Z,81.95
2022-08-22T04:31:41.957Z,81.87
2022-08-22T04:34:40.137Z,82.08
2022-08-22T04:37:35.340Z,82.55
2022-08-22T04:40:04.893Z,82.33
2022-08-22T04:42:40.416Z,82.18
2022-08-22T04:45:17.021Z,82.08
2022-08-22T04:47:54.038Z,82.20
2022-08-22T04:51:03.207Z,82.34
2022-08-22T04:53:52.649Z,82.16
2022-08-22T04:56:57.900Z,82.40
2022-08-22T04:59:25.339Z,82.73
2022-08-22T05:02:00.340Z,82.45
2022-08-22T05:04:36.186Z,82.43
2022-08-22T05:07:10.322Z,82.44
2022-08-22T05:09:42.776Z,82.29
2022-08-22T05:12:14.691Z,81.99
2022-08-22T05:14:44.482Z,82.12
2022-08-22T05:17:16.998Z,82.94
2022-08-22T05:19:50.712Z,82.91
2022-08-22T05:22:27.685Z,83.85
2022-08-22T05:25:02.195Z,84.30
2022-08-22T05:27:42.135Z,84.58
2022-08-22T05:30:15.556Z,84.15
2022-08-22T05:33:12.192Z,83.70
2022-08-22T05:35:48.678Z,83.41
2022-08-22T05:38:21.762Z,83.20
2022-08-22T05:40:57.640Z,82.73
2022-08-22T05:43:26.345Z,82.72
2022-08-22T05:45:55.924Z,82.37
2022-08-22T05:48:33.441Z,82.76
2022-08-22T05:51:14.555Z,82.55
2022-08-22T05:53:45.478Z,82.56
2022-08-22T05:56:21.171Z,83.30
2022-08-22T05:58:50.354Z,83.05
2022-08-22T06:01:38.593Z,83.50
2022-08-22T06:04:26.172Z,83.42
2022-08-22T06:07:00.433Z,83.58
2022-08-22T06:09:34.917Z,83.37
2022-08-22T06:12:22.315Z,83.41
2022-08-22T06:15:14.758Z,82.97
2022-08-22T06:17:45.619Z,82.75
2022-08-22T06:20:19.323Z,81.73
2022-08-22T06:22:52.750Z,82.40
2022-08-22T06:25:28.042Z,82.00
2022-08-22T06:27:58.091Z,82.08
2022-08-22T06:30:28.662Z,82.04
2022-08-22T06:33:02.589Z,81.43
2022-08-22T06:35:55.294Z,81.04
2022-08-22T06:38:28.362Z,81.05
2022-08-22T06:40:58.075Z,81.50
2022-08-22T06:43:25.399Z,80.52
2022-08-22T06:45:53.226Z,80.63
2022-08-22T06:48:23.659Z,80.25
2022-08-22T06:50:57.209Z,79.46
2022-08-22T06:53:28.691Z,78.95
2022-08-22T06:55:59.326Z,77.27
2022-08-22T06:58:34.740Z,76.43
2022-08-22T07:01:12.906Z,74.12
2022-08-22T07:03:47.227Z,72.88
2022-08-22T07:06:21.075Z,71.17
2022-08-22T07:08:53.707Z,69.22
2022-08-22T07:11:30.220Z,67.50
2022-08-22T07:14:05.718Z,66.55
2022-08-22T07:16:56.071Z,64.05
2022-08-22T07:19:31.915Z,62.46
2022-08-22T07:22:01.345Z,60.79
2022-08-22T07:24:31.741Z,60.16
2022-08-22T07:27:18.560Z,58.18
2022-08-22T07:29:53.071Z,57.22
2022-08-22T07:32:28.929Z,54.51
2022-08-22T07:35:04.520Z,53.01
2022-08-22T07:38:00.809Z,52.53
2022-08-22T07:40:33.743Z,52.95
2022-08-22T07:43:27.988Z,51.13
2022-08-22T07:46:20.977Z,47.51
2022-08-22T07:49:08.582Z,48.67
2022-08-22T07:51:50.611Z,47.73
2022-08-22T07:54:31.717Z,45.72
2022-08-22T07:57:11.099Z,46.69
2022-08-22T07:59:47.256Z,46.77
2022-08-22T08:02:17.354Z,47.28
2022-08-22T08:04:45.004Z,46.13
2022-08-22T08:07:15.876Z,45.46
2022-08-22T08:09:46.932Z,46.77
2022-08-22T08:12:15.873Z,45.43
2022-08-22T08:14:45.877Z,46.61
2022-08-22T08:17:32.340Z,44.95
2022-08-22T08:20:03.189Z,43.66
2022-08-22T08:22:30.386Z,45.52
2022-08-22T08:24:59.931Z,44.46
2022-08-22T08:27:50.447Z,43.44
2022-08-22T08:30:21.516Z,42.10
2022-08-22T08:32:57.352Z,43.10
2022-08-22T08:36:01.982Z,42.67
2022-08-22T08:38:36.468Z,41.71
2022-08-22T08:41:15.864Z,40.12
2022-08-22T08:44:22.587Z,39.82
2022-08-22T08:47:04.176Z,39.51
2022-08-22T08:49:30.853Z,38.69
2022-08-22T08:52:06.059Z,36.54
2022-08-22T08:54:44.768Z,37.39
2022-08-22T08:57:45.474Z,38.35
2022-08-22T09:00:30.314Z,36.49
2022-08-22T09:03:15.460Z,36.58
2022-08-22T09:05:54.291Z,36.57
2022-08-22T09:08:35.746Z,37.30
2022-08-22T09:11:31.035Z,36.18
2022-08-22T09:14:08.966Z,37.08
2022-08-22T09:17:03.063Z,35.50
2022-08-22T09:19:53.795Z,36.39
2022-08-22T09:22:26.029Z,37.13
2022-08-22T09:25:20.881Z,35.44
2022-08-22T09:27:59.511Z,34.44
2022-08-22T09:30:47.185Z,33.87
2022-08-22T09:33:24.894Z,34.56
2022-08-22T09:36:03.010Z,32.69
2022-08-22T09:38:59.797Z,33.34
2022-08-22T09:41:39.342Z,34.40
2022-08-22T09:44:24.313Z,35.28
2022-08-22T09:46:58.814Z,33.78
2022-08-22T09:49:35.695Z,32.34
2022-08-22T09:52:33.230Z,32.53
2022-08-22T09:55:01.194Z,31.60
2022-08-22T09:57:59.649Z,32.07
2022-08-22T10:00:55.136Z,32.72
2022-08-22T10:03:43.529Z,30.79
2022-08-22T10:06:45.202Z,30.71
2022-08-22T10:09:31.320Z,30.34
2022-08-22T10:12:05.043Z,31.36
2022-08-22T10:15:17.928Z,32.44
2022-08-22T10:18:14.778Z,33.52
2022-08-22T10:21:20.113Z,35.03
2022-08-22T10:23:55.999Z,35.63
2022-08-22T10:26:44.474Z,35.29
2022-08-22T10:29:36.866Z,37.05
2022-08-22T10:32:36.145Z,35.52
2022-08-22T10:35:29.536Z,34.83
2022-08-22T10:38:22.118Z,33.93
2022-08-22T10:41:26.022Z,33.82
2022-08-22T10:43:56.447Z,33.56
2022-08-22T10:46:36.797Z,32.56
2022-08-22T10:49:18.466Z,31.92
2022-08-22T10:52:06.499Z,32.32
2022-08-22T10:54:51.415Z,33.47
2022-08-22T10:57:31.017Z,32.28
2022-08-22T11:00:17.726Z,33.38
2022-08-22T11:03:00.827Z,34.76
2022-08-22T11:05:27.534Z,34.88
2022-08-22T11:08:33.087Z,35.64
2022-08-22T11:11:12.515Z,36.00
2022-08-22T11:13:48.100Z,35.10
2022-08-22T11:16:41.942Z,36.13
2022-08-22T11:19:15.969Z,36.48
2022-08-22T11:21:48.561Z,35.77
2022-08-22T11:24:53.913Z,35.21
2022-08-22T11:27:39.816Z,36.03
2022-08-22T11:30:20.514Z,34.27
2022-08-22T11:33:02.335Z,35.29
2022-08-22T11:35:41.695Z,34.51
2022-08-22T11:38:17.381Z,34.43
2022-08-22T11:41:10.261Z,34.74
2022-08-22T11:43:56.368Z,35.13
2022-08-22T11:46:43.121Z,36.28
2022-08-22T11:49:32.873Z,33.55
2022-08-22T11:52:13.014Z,34.07
2022-08-22T11:54:57.949Z,33.97
2022-08-22T11:57:34.106Z,33.03
2022-08-22T12:00:23.501Z,33.38
2022-08-22T12:03:17.971Z,31.98
2022-08-22T12:05:57.219Z,33.11
2022-08-22T12:08:33.667Z,31.77
2022-08-22T12:11:08.620Z,32.91
2022-08-22T12:14:02.410Z,34.85
2022-08-22T12:16:55.753Z,34.24
2022-08-22T12:19:34.820Z,33.65
2022-08-22T12:22:16.581Z,32.70
2022-08-22T12:25:11.357Z,33.94
2022-08-22T12:27:56.135Z,32.59
2022-08-22T12:30:32.924Z,34.42
2022-08-22T12:33:27.329Z,32.39
2022-08-22T12:36:20.217Z,33.01
2022-08-22T12:38:51.317Z,32.02
2022-08-22T12:41:46.508Z,31.77
2022-08-22T12:44:25.517Z,31.83
2022-08-22T12:47:09.824Z,32.45
2022-08-22T12:49:39.499Z,31.84
2022-08-22T12:52:41.278Z,31.54
2022-08-22T12:55:52.430Z,32.59
2022-08-22T12:59:00.482Z,30.50
2022-08-22T13:01:34.508Z,31.75
2022-08-22T13:04:02.744Z,30.79
2022-08-22T13:06:35.657Z,30.95
2022-08-22T13:09:13.882Z,30.92
2022-08-22T13:11:42.098Z,30.65
2022-08-22T13:14:15.654Z,30.44
2022-08-22T13:16:51.139Z,31.95
2022-08-22T13:19:22.236Z,31.22
2022-08-22T13:21:59.593Z,30.87
2022-08-22T13:24:51.800Z,31.22
2022-08-22T13:27:50.608Z,30.62
2022-08-22T13:30:21.896Z,31.24
2022-08-22T13:32:56.545Z,29.64
2022-08-22T13:35:44.658Z,29.90
2022-08-22T13:38:27.621Z,30.42
2022-08-22T13:40:56.886Z,30.43
2022-08-22T13:43:34.818Z,29.96
2022-08-22T13:46:05.052Z,30.39
2022-08-22T13:49:00.869Z,30.64
2022-08-22T13:51:48.214Z,31.43
2022-08-22T13:54:14.567Z,32.11
2022-08-22T13:56:52.883Z,31.88
2022-08-22T13:59:59.499Z,31.95
2022-08-22T14:02:46.834Z,32.98
2022-08-22T14:05:25.077Z,33.69
2022-08-22T14:08:13.007Z,31.86
2022-08-22T14:10:45.686Z,31.50
2022-08-22T14:13:24.256Z,30.88
2022-08-22T14:16:07.660Z,30.76
2022-08-22T14:18:44.381Z,29.88
2022-08-22T14:21:20.142Z,30.12
2022-08-22T14:23:50.437Z,30.79
2022-08-22T14:26:33.245Z,30.20
2022-08-22T14:29:11.909Z,29.32
2022-08-22T14:31:38.677Z,28.90
2022-08-22T14:34:10.575Z,28.91
2022-08-22T14:36:48.857Z,28.21
2022-08-22T14:39:41.543Z,28.91
2022-08-22T14:42:20.597Z,30.07
2022-08-22T14:45:21.976Z,29.53
2022-08-22T14:48:30.049Z,29.49
2022-08-22T14:51:04.100Z,29.56
2022-08-22T14:53:32.338Z,29.35
2022-08-22T14:56:01.395Z,28.99
2022-08-22T14:58:31.368Z,29.31
2022-08-22T15:01:09.905Z,29.95
2022-08-22T15:03:38.783Z,33.61
2022-08-22T15:06:12.506Z,29.44
2022-08-22T15:08:50.565Z,29.90
2022-08-22T15:11:22.671Z,32.04
2022-08-22T15:14:06.372Z,34.20
2022-08-22T15:16:35.176Z,33.16
2022-08-22T15:19:03.437Z,32.26
2022-08-22T15:21:33.598Z,31.30
2022-08-22T15:24:12.346Z,30.94
2022-08-22T15:26:50.156Z,33.36
2022-08-22T15:29:31.082Z,33.76
2022-08-22T15:32:02.315Z,34.92
2022-08-22T15:34:34.207Z,34.67
2022-08-22T15:37:10.987Z,33.28
2022-08-22T15:40:02.968Z,32.28
2022-08-22T15:42:45.868Z,34.67
2022-08-22T15:45:33.710Z,34.06
2022-08-22T15:48:04.534Z,31.30
2022-08-22T15:50:39.474Z,31.71
2022-08-22T15:53:24.201Z,34.83
2022-08-22T15:56:05.122Z,35.55
2022-08-22T15:58:37.101Z,35.44
2022-08-22T16:01:17.966Z,41.31
2022-08-22T16:03:58.112Z,40.31
2022-08-22T16:07:00.342Z,41.25
2022-08-22T16:09:44.337Z,42.37
2022-08-22T16:12:26.502Z,42.44
2022-08-22T16:14:53.474Z,44.38
2022-08-22T16:17:25.849Z,45.27
2022-08-22T16:20:19.326Z,43.18
2022-08-22T16:22:58.901Z,45.24
2022-08-22T16:25:50.253Z,44.77
2022-08-22T16:28:56.304Z,46.30
2022-08-22T16:31:27.470Z,46.02
2022-08-22T16:33:57.072Z,45.95
2022-08-22T16:36:51.116Z,46.20
2022-08-22T16:39:20.998Z,45.72
2022-08-22T16:41:54.262Z,46.43
2022-08-22T16:44:20.641Z,48.59
2022-08-22T16:46:49.577Z,48.38
2022-08-22T16:49:30.612Z,47.89
2022-08-22T16:52:24.962Z,49.42
2022-08-22T16:54:55.793Z,49.37
2022-08-22T16:57:37.474Z,50.04
2022-08-22T17:00:12.230Z,52.08
2022-08-22T17:02:59.903Z,51.36
2022-08-22T17:05:41.276Z,52.56
2022-08-22T17:08:30.670Z,54.71
2022-08-22T17:11:02.307Z,55.08
2022-08-22T17:13:40.098Z,55.00
2022-08-22T17:16:25.179Z,54.66
2022-08-22T17:19:05.016Z,54.55
2022-08-22T17:21:42.258Z,52.78
2022-08-22T17:24:44.841Z,52.25
2022-08-22T17:27:17.321Z,50.77
2022-08-22T17:29:43.787Z,49.99
2022-08-22T17:32:51.365Z,51.46
2022-08-22T17:35:44.299Z,53.88
2022-08-22T17:38:32.062Z,52.40
2022-08-22T17:41:23.383Z,53.89
2022-08-22T17:44:09.338Z,52.27
2022-08-22T17:46:47.739Z,52.88
2022-08-22T17:49:20.543Z,53.32
2022-08-22T17:51:54.966Z,53.72
2022-08-22T17:54:29.712Z,54.35
2022-08-22T17:57:05.773Z,54.24
2022-08-22T17:59:59.274Z,54.85
2022-08-22T18:02:33.269Z,54.04
2022-08-22T18:05:20.747Z,54.68
2022-08-22T18:07:56.640Z,54.59
2022-08-22T18:10:42.445Z,53.75
2022-08-22T18:13:34.087Z,54.28
2022-08-22T18:16:29.382Z,54.31
2022-08-22T18:19:13.414Z,55.97
2022-08-22T18:21:49.771Z,55.75
2022-08-22T18:24:20.145Z,57.11
2022-08-22T18:27:04.416Z,57.33
2022-08-22T18:29:43.019Z,57.18
2022-08-22T18:32:21.147Z,57.23
2022-08-22T18:35:07.697Z,57.08
2022-08-22T18:37:34.850Z,58.25
2022-08-22T18:40:26.947Z,58.05
2022-08-22T18:42:56.218Z,58.48
2022-08-22T18:45:44.724Z,58.07
2022-08-22T18:49:11.558Z,58.71
2022-08-22T18:51:38.400Z,59.22
2022-08-22T18:54:05.144Z,59.65
2022-08-22T18:56:31.537Z,59.68
2022-08-22T18:59:05.161Z,59.77
2022-08-22T19:01:47.249Z,59.93
2022-08-22T19:04:34.414Z,59.53
2022-08-22T19:07:45.188Z,59.63
2022-08-22T19:10:34.373Z,60.77
2022-08-22T19:13:37.195Z,61.32
2022-08-22T19:16:26.334Z,60.72
2022-08-22T19:18:58.689Z,61.05
2022-08-22T19:21:49.994Z,61.36
2022-08-22T19:24:19.175Z,60.69
2022-08-22T19:27:08.874Z,61.67
2022-08-22T19:29:35.895Z,62.02
2022-08-22T19:32:06.587Z,62.96
2022-08-22T19:34:42.131Z,62.69
2022-08-22T19:37:33.722Z,62.39
2022-08-22T19:40:10.046Z,62.75
2022-08-22T19:42:38.940Z,61.87
2022-08-22T19:45:29.381Z,63.75
2022-08-22T19:48:00.903Z,63.82
2022-08-22T19:50:34.875Z,64.55
2022-08-22T19:53:32.947Z,64.39
2022-08-22T19:56:13.532Z,64.67
2022-08-22T19:58:50.568Z,65.29
2022-08-22T20:01:31.638Z,64.89
2022-08-22T20:04:05.976Z,63.76
2022-08-22T20:06:46.257Z,65.54
2022-08-22T20:09:40.746Z,64.68
2022-08-22T20:12:18.270Z,64.11
2022-08-22T20:14:46.900Z,64.23
2022-08-22T20:17:25.299Z,64.27
2022-08-22T20:20:27.984Z,63.98
2022-08-22T20:23:00.726Z,63.61
2022-08-22T20:25:50.302Z,64.16
2022-08-22T20:28:25.737Z,64.25
2022-08-22T20:31:00.015Z,64.83
2022-08-22T20:33:33.899Z,64.24
2022-08-22T20:36:16.718Z,64.31
2022-08-22T20:39:00.177Z,63.70
2022-08-22T20:41:36.590Z,63.92
2022-08-22T20:44:24.885Z,64.68
2022-08-22T20:46:57.958Z,64.91
2022-08-22T20:49:34.614Z,65.16
2022-08-22T20:52:06.110Z,65.65
2022-08-22T20:54:35.827Z,65.58
2022-08-22T20:57:10.348Z,66.02
2022-08-22T20:59:40.096Z,66.50
2022-08-22T21:02:13.034Z,66.13
2022-08-22T21:04:56.948Z,66.07
2022-08-22T21:07:44.500Z,66.63
2022-08-22T21:10:37.710Z,66.63
2022-08-22T21:13:09.508Z,66.91
2022-08-22T21:15:43.062Z,66.87
2022-08-22T21:18:12.683Z,67.11
2022-08-22T21:20:39.671Z,66.89
2022-08-22T21:23:19.691Z,67.47
2022-08-22T21:25:57.294Z,68.23
2022-08-22T21:29:02.177Z,68.53
2022-08-22T21:31:42.598Z,68.22
2022-08-22T21:34:15.822Z,68.36
2022-08-22T21:36:42.820Z,68.18
2022-08-22T21:39:17.219Z,67.35
2022-08-22T21:41:49.910Z,67.46
2022-08-22T21:44:27.475Z,67.90
2022-08-22T21:46:55.577Z,67.96
2022-08-22T21:49:29.472Z,68.57
2022-08-22T21:51:56.339Z,68.79
2022-08-22T21:54:25.799Z,68.56
2022-08-22T21:56:55.278Z,69.01
2022-08-22T21:59:43.132Z,69.48
2022-08-22T22:02:39.814Z,70.17
2022-08-22T22:05:13.338Z,70.01
2022-08-22T22:07:42.804Z,70.02
2022-08-22T22:10:12.466Z,70.34
2022-08-22T22:12:40.989Z,70.64
2022-08-22T22:15:09.399Z,70.92
2022-08-22T22:17:35.860Z,70.97
2022-08-22T22:20:03.163Z,71.37
2022-08-22T22:22:29.678Z,71.08
2022-08-22T22:24:56.133Z,71.38
2022-08-22T22:27:22.730Z,71.66
2022-08-22T22:29:49.133Z,72.08
2022-08-22T22:32:15.650Z,71.98
2022-08-22T22:34:42.142Z,72.60
2022-08-22T22:37:11.905Z,72.56
2022-08-22T22:39:39.203Z,72.90
2022-08-22T22:42:06.438Z,72.93
2022-08-22T22:44:33.242Z,72.73
2022-08-22T22:47:02.271Z,73.20
2022-08-22T22:49:31.121Z,72.98
2022-08-22T22:51:59.910Z,73.61
2022-08-22T22:54:27.228Z,73.59
2022-08-22T22:56:54.725Z,73.18
2022-08-22T22:59:24.543Z,73.37
2022-08-22T23:02:07.513Z,73.57
2022-08-22T23:04:39.099Z,73.66
2022-08-22T23:07:08.023Z,73.93
2022-08-22T23:09:38.434Z,74.10
2022-08-22T23:12:13.378Z,74.08
2022-08-22T23:14:39.890Z,74.19
2022-08-22T23:17:07.215Z,73.75
2022-08-22T23:19:33.826Z,73.96
2022-08-22T23:22:01.136Z,74.50
2022-08-22T23:24:29.972Z,74.63
2022-08-22T23:26:57.096Z,73.99
2022-08-22T23:29:24.783Z,74.58
2022-08-22T23:31:54.230Z,75.35
2022-08-22T23:34:25.137Z,75.55
2022-08-22T23:36:54.413Z,75.27
2022-08-22T23:39:22.821Z,75.26
2022-08-22T23:41:49.983Z,75.54
2022-08-22T23:44:19.126Z,75.62
2022-08-22T23:46:45.893Z,75.86
2022-08-22T23:49:13.961Z,75.91
2022-08-22T23:51:41.743Z,75.42
2022-08-22T23:54:08.530Z,75.53
2022-08-22T23:56:40.631Z,75.43
2022-08-22T23:59:14.906Z,76.17
